createdAt,value
2023-05-18T00:00:17.112Z,97.92
2023-05-18T00:02:44.297Z,98.27
2023-05-18T00:05:11.660Z,96.52
2023-05-18T00:07:39.484Z,97.60
2023-05-18T00:10:07.778Z,97.64
2023-05-18T00:12:34.730Z,97.35
2023-05-18T00:15:02.168Z,95.97
2023-05-18T00:17:29.410Z,95.85
2023-05-18T00:19:58.572Z,94.89
2023-05-18T00:22:26.441Z,95.95
2023-05-18T00:24:53.402Z,95.79
2023-05-18T00:27:20.451Z,96.30
2023-05-18T00:29:47.372Z,96.39
2023-05-18T00:32:14.274Z,95.42
2023-05-18T00:34:41.805Z,96.37
2023-05-18T00:37:08.977Z,96.52
2023-05-18T00:39:35.993Z,96.20
2023-05-18T00:42:03.142Z,96.26
2023-05-18T00:44:30.202Z,96.23
2023-05-18T00:46:57.107Z,95.85
2023-05-18T00:49:24.074Z,96.61
2023-05-18T00:51:51.404Z,96.09
2023-05-18T00:54:19.408Z,96.22
2023-05-18T00:56:48.435Z,97.22
2023-05-18T00:59:16.413Z,95.31
2023-05-18T01:01:46.260Z,97.07
2023-05-18T01:04:16.528Z,97.13
2023-05-18T01:06:43.757Z,96.76
2023-05-18T01:09:12.479Z,96.92
2023-05-18T01:12:01.176Z,96.80
2023-05-18T01:14:38.049Z,97.13
2023-05-18T01:17:40.114Z,96.53
2023-05-18T01:20:33.645Z,95.89
2023-05-18T01:23:17.711Z,95.14
2023-05-18T01:25:55.606Z,95.14
2023-05-18T01:28:33.044Z,95.84
2023-05-18T01:31:00.721Z,95.67
2023-05-18T01:33:27.742Z,96.17
2023-05-18T01:35:54.691Z,95.92
2023-05-18T01:38:24.679Z,95.63
2023-05-18T01:41:15.350Z,94.87
2023-05-18T01:44:29.487Z,95.95
2023-05-18T01:47:00.168Z,94.77
2023-05-18T01:49:32.198Z,95.26
2023-05-18T01:52:07.576Z,96.79
2023-05-18T01:54:39.074Z,96.92
2023-05-18T01:57:08.462Z,97.21
2023-05-18T01:59:37.399Z,95.56
2023-05-18T02:02:05.150Z,96.73
2023-05-18T02:04:32.284Z,95.88
2023-05-18T02:06:59.213Z,96.76
2023-05-18T02:09:26.486Z,97.46
2023-05-18T02:11:53.429Z,98.00
2023-05-18T02:14:21.511Z,98.17
2023-05-18T02:16:52.913Z,96.75
2023-05-18T02:19:21.886Z,97.89
2023-05-18T02:21:49.083Z,97.43
2023-05-18T02:24:17.786Z,96.28
2023-05-18T02:26:45.851Z,98.24
2023-05-18T02:29:14.559Z,99.55
2023-05-18T02:31:41.944Z,100.00
2023-05-18T02:34:09.371Z,99.21
2023-05-18T02:36:42.832Z,98.70
2023-05-18T02:39:10.489Z,98.51
2023-05-18T02:41:38.120Z,98.86
2023-05-18T02:44:06.286Z,99.13
2023-05-18T02:46:33.497Z,98.31
2023-05-18T02:49:00.412Z,99.12
2023-05-18T02:51:27.356Z,99.76
2023-05-18T02:53:54.360Z,100.00
2023-05-18T02:56:21.341Z,100.00
2023-05-18T02:58:48.349Z,99.59
2023-05-18T03:01:15.338Z,98.88
2023-05-18T03:03:43.307Z,99.54
2023-05-18T03:06:10.650Z,99.85
2023-05-18T03:08:37.571Z,100.00
2023-05-18T03:11:04.827Z,99.95
2023-05-18T03:13:31.860Z,100.00
2023-05-18T03:15:58.926Z,100.00
2023-05-18T03:18:25.935Z,100.00
2023-05-18T03:20:53.294Z,100.00
2023-05-18T03:23:21.231Z,100.00
2023-05-18T03:25:54.492Z,100.00
2023-05-18T03:28:21.745Z,100.00
2023-05-18T03:30:49.323Z,100.00
2023-05-18T03:33:16.729Z,100.00
2023-05-18T03:35:44.737Z,100.00
2023-05-18T03:38:12.390Z,100.00
2023-05-18T03:40:39.315Z,100.00
2023-05-18T03:43:06.382Z,100.00
2023-05-18T03:45:33.333Z,100.00
2023-05-18T03:48:01.041Z,100.00
2023-05-18T03:50:29.444Z,100.00
2023-05-18T03:52:56.487Z,100.00
2023-05-18T03:55:24.008Z,100.00
2023-05-18T03:57:51.244Z,100.00
2023-05-18T04:00:18.718Z,100.00
2023-05-18T04:02:46.571Z,100.00
2023-05-18T04:05:13.612Z,100.00
2023-05-18T04:07:44.221Z,100.00
2023-05-18T04:10:12.909Z,100.00
2023-05-18T04:12:40.792Z,100.00
2023-05-18T04:15:08.558Z,100.00
2023-05-18T04:17:35.766Z,99.50
2023-05-18T04:20:11.629Z,98.93
2023-05-18T04:22:57.752Z,98.64
2023-05-18T04:25:28.433Z,98.92
2023-05-18T04:27:56.722Z,98.31
2023-05-18T04:30:26.584Z,98.29
2023-05-18T04:32:54.694Z,97.25
2023-05-18T04:35:21.885Z,96.51
2023-05-18T04:37:49.165Z,97.52
2023-05-18T04:40:17.237Z,95.98
2023-05-18T04:42:48.479Z,96.60
2023-05-18T04:45:22.902Z,95.95
2023-05-18T04:47:53.875Z,97.24
2023-05-18T04:50:23.884Z,95.18
2023-05-18T04:52:52.824Z,95.54
2023-05-18T04:55:29.393Z,94.74
2023-05-18T04:57:57.475Z,95.41
2023-05-18T05:00:26.799Z,95.86
2023-05-18T05:02:54.986Z,95.46
2023-05-18T05:05:23.678Z,93.83
2023-05-18T05:07:52.119Z,95.72
2023-05-18T05:10:20.924Z,96.09
2023-05-18T05:12:50.659Z,94.37
2023-05-18T05:15:18.739Z,94.17
2023-05-18T05:17:47.895Z,93.73
2023-05-18T05:20:15.677Z,92.89
2023-05-18T05:22:42.724Z,91.78
2023-05-18T05:25:10.242Z,92.21
2023-05-18T05:27:37.374Z,92.01
2023-05-18T05:30:05.220Z,92.59
2023-05-18T05:32:32.272Z,90.30
2023-05-18T05:34:59.620Z,90.67
2023-05-18T05:37:26.597Z,88.02
2023-05-18T05:39:53.637Z,88.27
2023-05-18T05:42:20.877Z,86.76
2023-05-18T05:44:47.850Z,88.80
2023-05-18T05:47:14.823Z,87.36
2023-05-18T05:49:41.945Z,88.55
2023-05-18T05:52:09.307Z,86.51
2023-05-18T05:54:36.245Z,87.97
2023-05-18T05:57:03.920Z,85.82
2023-05-18T05:59:31.172Z,86.38
2023-05-18T06:01:58.488Z,85.89
2023-05-18T06:04:25.641Z,86.88
2023-05-18T06:06:52.658Z,84.34
2023-05-18T06:09:19.693Z,85.78
2023-05-18T06:11:46.643Z,85.64
2023-05-18T06:14:13.682Z,82.77
2023-05-18T06:16:40.889Z,81.22
2023-05-18T06:19:08.304Z,82.95
2023-05-18T06:21:35.703Z,83.78
2023-05-18T06:24:04.991Z,84.21
2023-05-18T06:26:32.592Z,85.23
2023-05-18T06:28:59.569Z,83.93
2023-05-18T06:31:28.310Z,81.88
2023-05-18T06:33:57.175Z,83.65
2023-05-18T06:36:24.180Z,82.70
2023-05-18T06:38:51.324Z,82.81
2023-05-18T06:41:18.353Z,82.50
2023-05-18T06:43:45.594Z,82.56
2023-05-18T06:46:26.578Z,80.16
2023-05-18T06:48:54.237Z,78.38
2023-05-18T06:51:21.247Z,79.05
2023-05-18T06:53:48.548Z,77.46
2023-05-18T06:56:16.625Z,77.94
2023-05-18T06:58:43.843Z,79.94
2023-05-18T07:01:11.295Z,76.00
2023-05-18T07:03:38.496Z,77.09
2023-05-18T07:06:06.154Z,77.97
2023-05-18T07:08:33.957Z,74.34
2023-05-18T07:11:02.464Z,75.35
2023-05-18T07:13:30.001Z,74.71
2023-05-18T07:15:57.381Z,77.36
2023-05-18T07:18:24.599Z,76.98
2023-05-18T07:20:51.563Z,77.32
2023-05-18T07:23:18.501Z,75.55
2023-05-18T07:25:45.668Z,76.81
2023-05-18T07:28:12.645Z,74.59
2023-05-18T07:30:39.627Z,77.20
2023-05-18T07:33:06.695Z,76.21
2023-05-18T07:35:33.899Z,75.21
2023-05-18T07:38:00.917Z,73.59
2023-05-18T07:40:28.047Z,75.68
2023-05-18T07:42:55.042Z,75.45
2023-05-18T07:45:23.783Z,73.08
2023-05-18T07:47:50.936Z,71.44
2023-05-18T07:50:17.942Z,71.96
2023-05-18T07:52:44.882Z,71.34
2023-05-18T07:55:11.869Z,71.80
2023-05-18T07:57:40.367Z,72.30
2023-05-18T08:00:09.819Z,70.61
2023-05-18T08:02:37.838Z,69.72
2023-05-18T08:05:05.715Z,69.49
2023-05-18T08:07:33.444Z,72.48
2023-05-18T08:10:00.545Z,67.37
2023-05-18T08:12:27.513Z,69.92
2023-05-18T08:14:54.548Z,69.26
2023-05-18T08:17:21.795Z,66.97
2023-05-18T08:19:49.334Z,70.48
2023-05-18T08:22:16.282Z,67.70
2023-05-18T08:24:43.309Z,68.35
2023-05-18T08:27:11.387Z,67.09
2023-05-18T08:29:38.434Z,64.34
2023-05-18T08:32:08.854Z,64.19
2023-05-18T08:34:36.008Z,65.43
2023-05-18T08:37:03.163Z,64.44
2023-05-18T08:39:33.212Z,63.38
2023-05-18T08:42:08.135Z,62.50
2023-05-18T08:44:47.310Z,63.42
2023-05-18T08:47:15.360Z,63.52
2023-05-18T08:49:42.907Z,63.38
2023-05-18T08:52:10.441Z,63.14
2023-05-18T08:54:39.823Z,63.31
2023-05-18T08:57:09.760Z,64.11
2023-05-18T08:59:41.703Z,65.29
2023-05-18T09:02:10.032Z,65.29
2023-05-18T09:04:38.942Z,64.64
2023-05-18T09:07:08.948Z,63.43
2023-05-18T09:09:36.030Z,60.81
2023-05-18T09:12:03.748Z,62.85
2023-05-18T09:14:32.634Z,65.86
2023-05-18T09:16:59.610Z,62.32
2023-05-18T09:19:26.898Z,59.37
2023-05-18T09:21:53.866Z,64.10
2023-05-18T09:24:24.412Z,64.03
2023-05-18T09:26:51.974Z,60.25
2023-05-18T09:29:21.748Z,61.67
2023-05-18T09:31:49.779Z,61.19
2023-05-18T09:34:19.360Z,61.33
2023-05-18T09:36:53.090Z,61.11
2023-05-18T09:39:20.187Z,61.40
2023-05-18T09:41:47.213Z,62.79
2023-05-18T09:44:15.157Z,62.73
2023-05-18T09:46:42.355Z,63.08
2023-05-18T09:49:09.799Z,61.50
2023-05-18T09:51:38.437Z,61.43
2023-05-18T09:54:08.654Z,62.99
2023-05-18T09:56:37.656Z,60.81
2023-05-18T09:59:13.552Z,58.05
2023-05-18T10:02:01.763Z,61.54
2023-05-18T10:04:37.816Z,62.96
2023-05-18T10:07:14.063Z,59.28
2023-05-18T10:09:42.805Z,60.73
2023-05-18T10:12:16.652Z,58.52
2023-05-18T10:14:45.946Z,55.64
2023-05-18T10:17:16.602Z,55.73
2023-05-18T10:19:46.565Z,57.58
2023-05-18T10:22:20.925Z,59.09
2023-05-18T10:24:54.593Z,59.14
2023-05-18T10:27:28.651Z,59.01
2023-05-18T10:29:59.646Z,57.75
2023-05-18T10:32:28.395Z,59.30
2023-05-18T10:34:57.330Z,58.01
2023-05-18T10:37:24.615Z,57.31
2023-05-18T10:39:52.411Z,57.67
2023-05-18T10:42:20.318Z,59.50
2023-05-18T10:44:48.293Z,57.27
2023-05-18T10:47:16.086Z,56.70
2023-05-18T10:49:44.022Z,57.07
2023-05-18T10:52:12.638Z,55.89
2023-05-18T10:54:41.961Z,53.70
2023-05-18T10:57:15.848Z,53.57
2023-05-18T10:59:47.446Z,52.73
2023-05-18T11:02:18.227Z,53.06
2023-05-18T11:04:51.883Z,55.07
2023-05-18T11:07:21.686Z,54.61
2023-05-18T11:09:49.704Z,54.09
2023-05-18T11:12:20.283Z,52.43
2023-05-18T11:14:55.136Z,54.85
2023-05-18T11:17:25.393Z,55.22
2023-05-18T11:20:13.459Z,54.44
2023-05-18T11:22:49.162Z,52.16
2023-05-18T11:25:27.559Z,55.73
2023-05-18T11:28:01.772Z,51.63
2023-05-18T11:30:47.577Z,53.02
2023-05-18T11:33:27.246Z,53.58
2023-05-18T11:36:11.720Z,52.98
2023-05-18T11:38:55.893Z,51.63
2023-05-18T11:41:35.696Z,53.12
2023-05-18T11:44:18.061Z,55.33
2023-05-18T11:47:03.639Z,52.73
2023-05-18T11:49:43.970Z,52.75
2023-05-18T11:52:21.098Z,52.50
2023-05-18T11:54:56.703Z,49.66
2023-05-18T11:57:36.732Z,50.92
2023-05-18T12:00:11.911Z,53.69
2023-05-18T12:02:43.046Z,51.64
2023-05-18T12:05:10.858Z,55.56
2023-05-18T12:07:39.545Z,53.20
2023-05-18T12:10:14.997Z,52.16
2023-05-18T12:12:43.162Z,53.05
2023-05-18T12:15:11.984Z,51.32
2023-05-18T12:17:43.229Z,50.85
2023-05-18T12:20:16.651Z,51.08
2023-05-18T12:22:53.283Z,53.58
2023-05-18T12:25:22.056Z,51.96
2023-05-18T12:27:51.650Z,51.09
2023-05-18T12:30:25.699Z,49.57
2023-05-18T12:32:57.264Z,53.54
2023-05-18T12:35:29.526Z,48.95
2023-05-18T12:38:02.171Z,52.04
2023-05-18T12:40:42.691Z,51.87
2023-05-18T12:43:09.672Z,49.80
2023-05-18T12:45:36.687Z,52.58
2023-05-18T12:48:09.657Z,49.16
2023-05-18T12:50:38.749Z,51.25
2023-05-18T12:53:05.807Z,49.40
2023-05-18T12:55:33.573Z,51.08
2023-05-18T12:58:17.575Z,51.19
2023-05-18T13:00:47.114Z,50.84
2023-05-18T13:03:17.171Z,50.68
2023-05-18T13:05:46.403Z,52.42
2023-05-18T13:08:22.187Z,49.90
2023-05-18T13:10:57.985Z,50.44
2023-05-18T13:13:28.861Z,50.85
2023-05-18T13:15:55.818Z,49.89
2023-05-18T13:18:22.826Z,49.80
2023-05-18T13:20:55.208Z,49.07
2023-05-18T13:23:29.606Z,49.95
2023-05-18T13:25:58.660Z,49.11
2023-05-18T13:28:26.929Z,48.65
2023-05-18T13:30:54.152Z,52.36
2023-05-18T13:33:21.519Z,48.59
2023-05-18T13:35:49.769Z,47.52
2023-05-18T13:38:17.010Z,49.75
2023-05-18T13:40:44.048Z,47.92
2023-05-18T13:43:12.799Z,47.92
2023-05-18T13:45:41.652Z,49.85
2023-05-18T13:48:10.657Z,49.50
2023-05-18T13:50:39.484Z,51.17
2023-05-18T13:53:07.182Z,47.76
2023-05-18T13:55:35.043Z,49.74
2023-05-18T13:58:02.053Z,47.40
2023-05-18T14:00:29.152Z,50.32
2023-05-18T14:02:56.562Z,46.84
2023-05-18T14:05:24.106Z,47.89
2023-05-18T14:07:54.249Z,49.54
2023-05-18T14:10:21.462Z,49.97
2023-05-18T14:12:48.884Z,49.37
2023-05-18T14:15:16.173Z,50.29
2023-05-18T14:17:43.758Z,48.64
2023-05-18T14:20:12.267Z,50.25
2023-05-18T14:22:39.853Z,51.68
2023-05-18T14:25:07.136Z,48.04
2023-05-18T14:27:34.345Z,48.46
2023-05-18T14:30:01.994Z,48.38
2023-05-18T14:32:29.151Z,46.82
2023-05-18T14:34:58.103Z,47.09
2023-05-18T14:37:25.502Z,48.37
2023-05-18T14:39:52.544Z,48.28
2023-05-18T14:42:19.522Z,47.87
2023-05-18T14:44:46.856Z,47.99
2023-05-18T14:47:13.849Z,49.83
2023-05-18T14:49:40.959Z,47.18
2023-05-18T14:52:08.020Z,48.69
2023-05-18T14:54:35.037Z,49.36
2023-05-18T14:57:02.114Z,49.11
2023-05-18T14:59:29.112Z,48.40
2023-05-18T15:01:56.094Z,48.42
2023-05-18T15:04:23.613Z,48.48
2023-05-18T15:06:50.798Z,48.55
2023-05-18T15:09:17.704Z,50.16
2023-05-18T15:11:44.795Z,48.25
2023-05-18T15:14:11.734Z,49.82
2023-05-18T15:16:39.020Z,49.04
2023-05-18T15:19:06.307Z,49.07
2023-05-18T15:21:33.341Z,47.84
2023-05-18T15:24:00.415Z,46.74
2023-05-18T15:26:27.895Z,49.49
2023-05-18T15:28:54.882Z,45.77
2023-05-18T15:31:21.984Z,46.66
2023-05-18T15:33:50.297Z,46.51
2023-05-18T15:36:17.470Z,48.31
2023-05-18T15:38:44.461Z,49.21
2023-05-18T15:41:11.454Z,49.03
2023-05-18T15:43:39.151Z,46.76
2023-05-18T15:46:06.215Z,50.32
2023-05-18T15:48:33.269Z,50.12
2023-05-18T15:51:00.206Z,50.03
2023-05-18T15:53:27.230Z,50.03
2023-05-18T15:55:58.650Z,47.90
2023-05-18T15:58:26.928Z,47.68
2023-05-18T16:00:54.270Z,48.37
2023-05-18T16:03:23.415Z,48.67
2023-05-18T16:05:50.565Z,49.91
2023-05-18T16:08:17.521Z,48.45
2023-05-18T16:10:44.674Z,50.27
2023-05-18T16:13:11.701Z,49.62
2023-05-18T16:15:39.332Z,49.40
2023-05-18T16:18:06.594Z,50.48
2023-05-18T16:20:33.933Z,49.57
2023-05-18T16:23:01.197Z,51.61
2023-05-18T16:25:29.075Z,48.94
2023-05-18T16:27:56.418Z,49.16
2023-05-18T16:30:23.479Z,50.39
2023-05-18T16:32:50.560Z,48.99
2023-05-18T16:35:17.649Z,48.05
2023-05-18T16:37:44.777Z,48.02
2023-05-18T16:40:12.066Z,49.17
2023-05-18T16:42:39.554Z,49.78
2023-05-18T16:45:06.928Z,51.15
2023-05-18T16:47:34.003Z,50.44
2023-05-18T16:50:01.040Z,50.04
2023-05-18T16:52:28.154Z,49.04
2023-05-18T16:54:55.118Z,50.64
2023-05-18T16:57:22.369Z,50.28
2023-05-18T16:59:49.797Z,50.57
2023-05-18T17:02:17.901Z,50.95
2023-05-18T17:04:45.990Z,52.17
2023-05-18T17:07:13.125Z,50.80
2023-05-18T17:09:41.664Z,50.55
2023-05-18T17:12:11.334Z,51.32
2023-05-18T17:14:38.826Z,52.57
2023-05-18T17:17:07.410Z,51.22
2023-05-18T17:19:35.163Z,50.70
2023-05-18T17:22:03.538Z,50.32
2023-05-18T17:24:31.296Z,52.51
2023-05-18T17:26:58.462Z,52.57
2023-05-18T17:29:25.730Z,52.04
2023-05-18T17:31:53.074Z,53.14
2023-05-18T17:34:20.279Z,53.96
2023-05-18T17:36:47.279Z,53.58
2023-05-18T17:39:18.024Z,54.22
2023-05-18T17:41:45.127Z,52.77
2023-05-18T17:44:16.462Z,50.85
2023-05-18T17:46:47.602Z,50.86
2023-05-18T17:49:15.171Z,49.49
2023-05-18T17:51:42.252Z,52.18
2023-05-18T17:54:10.533Z,51.92
2023-05-18T17:56:38.300Z,53.77
2023-05-18T17:59:06.269Z,54.06
2023-05-18T18:01:34.377Z,53.55
2023-05-18T18:04:01.667Z,54.76
2023-05-18T18:06:28.692Z,54.14
2023-05-18T18:08:58.561Z,56.35
2023-05-18T18:11:26.504Z,56.54
2023-05-18T18:13:54.478Z,56.68
2023-05-18T18:16:22.260Z,57.73
2023-05-18T18:18:49.569Z,58.25
2023-05-18T18:21:16.620Z,58.19
2023-05-18T18:23:43.530Z,59.33
2023-05-18T18:26:11.004Z,59.52
2023-05-18T18:28:37.998Z,58.77
2023-05-18T18:31:05.005Z,59.53
2023-05-18T18:33:32.935Z,58.76
2023-05-18T18:36:00.674Z,59.11
2023-05-18T18:38:28.694Z,59.90
2023-05-18T18:41:04.052Z,60.33
2023-05-18T18:43:31.457Z,59.30
2023-05-18T18:45:59.210Z,59.95
2023-05-18T18:48:26.681Z,60.57
2023-05-18T18:50:53.958Z,60.60
2023-05-18T18:53:21.681Z,61.24
2023-05-18T18:55:48.700Z,60.45
2023-05-18T18:58:16.056Z,59.87
2023-05-18T19:00:43.706Z,60.33
2023-05-18T19:03:11.161Z,61.74
2023-05-18T19:05:39.271Z,61.95
2023-05-18T19:08:06.337Z,61.77
2023-05-18T19:10:34.281Z,61.84
2023-05-18T19:13:05.561Z,63.49
2023-05-18T19:15:34.557Z,62.71
2023-05-18T19:18:02.411Z,62.54
2023-05-18T19:20:30.391Z,62.74
2023-05-18T19:22:57.568Z,64.18
2023-05-18T19:25:26.345Z,63.64
2023-05-18T19:27:54.361Z,63.77
2023-05-18T19:30:22.973Z,63.39
2023-05-18T19:32:51.947Z,63.91
2023-05-18T19:35:20.762Z,63.65
2023-05-18T19:37:48.173Z,65.81
2023-05-18T19:40:16.522Z,66.45
2023-05-18T19:42:43.646Z,67.22
2023-05-18T19:45:10.829Z,69.36
2023-05-18T19:47:37.976Z,67.81
2023-05-18T19:50:06.169Z,67.31
2023-05-18T19:52:33.784Z,67.05
2023-05-18T19:55:01.873Z,68.15
2023-05-18T19:57:29.411Z,67.81
2023-05-18T19:59:57.670Z,70.75
2023-05-18T20:02:24.805Z,75.13
2023-05-18T20:04:53.362Z,74.33
2023-05-18T20:07:20.535Z,75.46
2023-05-18T20:09:47.906Z,77.31
2023-05-18T20:12:14.857Z,77.75
2023-05-18T20:14:43.442Z,79.55
2023-05-18T20:17:10.512Z,78.44
2023-05-18T20:19:37.819Z,76.67
2023-05-18T20:22:05.384Z,77.75
2023-05-18T20:24:32.644Z,76.22
2023-05-18T20:26:59.975Z,76.00
2023-05-18T20:29:27.238Z,77.34
2023-05-18T20:31:55.118Z,77.77
2023-05-18T20:34:22.573Z,76.71
2023-05-18T20:36:49.635Z,78.56
2023-05-18T20:39:16.622Z,78.33
2023-05-18T20:41:43.556Z,77.39
2023-05-18T20:44:11.248Z,79.49
2023-05-18T20:46:42.545Z,78.00
2023-05-18T20:49:12.215Z,78.24
2023-05-18T20:51:39.192Z,78.54
2023-05-18T20:54:06.176Z,77.01
2023-05-18T20:56:33.909Z,77.02
2023-05-18T20:59:00.812Z,75.78
2023-05-18T21:01:30.382Z,75.81
2023-05-18T21:04:00.100Z,72.15
2023-05-18T21:06:27.269Z,70.53
2023-05-18T21:08:54.164Z,69.96
2023-05-18T21:11:21.313Z,70.79
2023-05-18T21:13:48.421Z,71.78
2023-05-18T21:16:15.653Z,72.29
2023-05-18T21:18:42.676Z,72.76
2023-05-18T21:21:09.672Z,75.37
2023-05-18T21:23:36.680Z,72.57
2023-05-18T21:26:03.843Z,71.58
2023-05-18T21:28:30.798Z,73.73
2023-05-18T21:30:57.849Z,78.17
2023-05-18T21:33:24.880Z,81.14
2023-05-18T21:35:52.107Z,84.46
2023-05-18T21:38:19.212Z,91.29
2023-05-18T21:40:46.789Z,88.02
2023-05-18T21:43:13.912Z,83.78
2023-05-18T21:45:41.183Z,82.89
2023-05-18T21:48:08.444Z,81.21
2023-05-18T21:50:35.704Z,81.37
2023-05-18T21:53:03.638Z,81.39
2023-05-18T21:55:32.063Z,78.94
2023-05-18T21:57:59.988Z,79.31
2023-05-18T22:00:27.288Z,79.35
2023-05-18T22:02:54.542Z,80.27
2023-05-18T22:05:21.688Z,80.47
2023-05-18T22:07:49.714Z,82.71
2023-05-18T22:10:18.114Z,85.14
2023-05-18T22:12:45.495Z,83.89
2023-05-18T22:15:12.683Z,83.52
2023-05-18T22:17:40.265Z,83.39
2023-05-18T22:20:11.421Z,83.10
2023-05-18T22:22:40.529Z,82.99
2023-05-18T22:25:08.150Z,83.86
2023-05-18T22:27:36.961Z,84.20
2023-05-18T22:30:06.778Z,84.50
2023-05-18T22:32:33.997Z,85.23
2023-05-18T22:35:04.688Z,87.26
2023-05-18T22:37:31.794Z,88.05
2023-05-18T22:39:59.145Z,88.47
2023-05-18T22:42:26.085Z,90.50
2023-05-18T22:44:53.070Z,91.47
2023-05-18T22:47:23.590Z,92.33
2023-05-18T22:49:50.857Z,91.99
2023-05-18T22:52:18.509Z,91.33
2023-05-18T22:54:46.150Z,93.94
2023-05-18T22:57:13.706Z,93.54
2023-05-18T22:59:40.839Z,93.17
2023-05-18T23:02:08.048Z,94.90
2023-05-18T23:04:35.717Z,95.08
2023-05-18T23:07:04.056Z,95.97
2023-05-18T23:09:31.319Z,94.89
2023-05-18T23:12:01.175Z,94.62
2023-05-18T23:14:31.189Z,96.12
2023-05-18T23:16:58.566Z,96.13
2023-05-18T23:19:26.941Z,96.22
2023-05-18T23:21:54.274Z,96.06
2023-05-18T23:24:21.810Z,95.56
2023-05-18T23:26:49.221Z,95.81
2023-05-18T23:29:16.440Z,96.71
2023-05-18T23:31:45.340Z,97.88
2023-05-18T23:34:12.717Z,97.77
2023-05-18T23:36:42.740Z,98.30
2023-05-18T23:39:10.432Z,98.89
2023-05-18T23:41:38.053Z,99.93
2023-05-18T23:44:06.549Z,98.69
2023-05-18T23:46:34.978Z,98.64
2023-05-18T23:49:02.220Z,99.11
2023-05-18T23:51:33.006Z,100.00
2023-05-18T23:54:01.047Z,98.58
2023-05-18T23:56:29.326Z,99.09
2023-05-18T23:58:56.620Z,99.27
